createdAt,value
2022-11-12T00:01:02.731Z,103127.47
2022-11-12T00:03:36.732Z,103138.81
2022-11-12T00:06:03.243Z,103119.56
2022-11-12T00:08:30.052Z,103173.19
2022-11-12T00:10:56.653Z,103187.59
2022-11-12T00:13:23.123Z,103161.94
2022-11-12T00:15:49.527Z,103166.34
2022-11-12T00:18:15.922Z,103167.34
2022-11-12T00:20:42.444Z,103187.06
2022-11-12T00:23:08.814Z,103188.75
2022-11-12T00:25:35.328Z,103175.09
2022-11-12T00:28:03.556Z,103185.81
2022-11-12T00:30:30.468Z,103190.16
2022-11-12T00:32:56.905Z,103186.19
2022-11-12T00:35:23.270Z,103187.34
2022-11-12T00:37:54.795Z,103190.16
2022-11-12T00:40:21.463Z,103157.84
2022-11-12T00:42:47.863Z,103177.84
2022-11-12T00:45:14.249Z,103201.16
2022-11-12T00:47:40.604Z,103185.06
2022-11-12T00:50:07.627Z,103148.19
2022-11-12T00:52:34.006Z,103163.94
2022-11-12T00:55:00.364Z,103189.66
2022-11-12T00:57:26.763Z,103130.63
2022-11-12T00:59:53.128Z,103165.44
2022-11-12T01:02:20.429Z,103178.94
2022-11-12T01:04:46.790Z,103148.53
2022-11-12T01:07:37.639Z,103147.88
2022-11-12T01:10:04.918Z,103197.16
2022-11-12T01:12:31.935Z,103178.59
2022-11-12T01:14:58.346Z,103169.44
2022-11-12T01:17:24.713Z,103177.84
2022-11-12T01:19:51.085Z,103163.13
2022-11-12T01:22:17.660Z,103158.84
2022-11-12T01:24:44.099Z,103149.25
2022-11-12T01:27:10.460Z,103163.19
2022-11-12T01:29:36.851Z,103173.19
2022-11-12T01:32:03.231Z,103170.19
2022-11-12T01:34:29.684Z,103170.06
2022-11-12T01:36:56.121Z,103186.00
2022-11-12T01:39:22.591Z,103118.31
2022-11-12T01:41:48.952Z,103146.69
2022-11-12T01:44:19.642Z,103189.66
2022-11-12T01:47:00.708Z,103196.56
2022-11-12T01:49:32.452Z,103200.88
2022-11-12T01:52:02.202Z,103201.03
2022-11-12T01:54:29.156Z,103191.13
2022-11-12T01:56:57.270Z,103172.81
2022-11-12T01:59:29.675Z,103205.78
2022-11-12T02:01:56.159Z,103156.41
2022-11-12T02:04:23.024Z,103184.69
2022-11-12T02:06:51.056Z,103188.03
2022-11-12T02:09:18.451Z,103169.63
2022-11-12T02:11:48.215Z,103184.03
2022-11-12T02:14:14.775Z,103181.56
2022-11-12T02:16:45.028Z,103175.28
2022-11-12T02:19:15.378Z,103197.78
2022-11-12T02:21:42.224Z,103168.66
2022-11-12T02:24:11.538Z,103187.72
2022-11-12T02:26:42.283Z,103166.56
2022-11-12T02:29:08.671Z,103173.06
2022-11-12T02:31:35.406Z,103185.31
2022-11-12T02:34:01.788Z,103152.44
2022-11-12T02:36:28.955Z,103163.00
2022-11-12T02:38:55.351Z,103144.19
2022-11-12T02:41:21.761Z,103134.06
2022-11-12T02:43:48.129Z,103128.22
2022-11-12T02:46:14.871Z,103175.66
2022-11-12T02:48:41.255Z,103136.97
2022-11-12T02:51:07.646Z,103162.50
2022-11-12T02:53:34.243Z,103162.81
2022-11-12T02:56:01.153Z,103124.44
2022-11-12T02:58:28.661Z,103164.88
2022-11-12T03:00:57.141Z,103166.47
2022-11-12T03:03:23.666Z,103126.50
2022-11-12T03:05:58.133Z,103162.34
2022-11-12T03:08:25.503Z,103165.59
2022-11-12T03:10:52.883Z,103168.75
2022-11-12T03:13:19.874Z,103168.66
2022-11-12T03:15:46.328Z,103132.28
2022-11-12T03:18:12.782Z,103125.63
2022-11-12T03:20:39.161Z,103143.00
2022-11-12T03:23:08.058Z,103153.91
2022-11-12T03:25:35.028Z,103112.31
2022-11-12T03:28:06.862Z,103162.16
2022-11-12T03:30:35.360Z,103166.47
2022-11-12T03:33:01.927Z,103157.81
2022-11-12T03:35:28.498Z,103147.84
2022-11-12T03:37:54.876Z,103135.69
2022-11-12T03:40:21.441Z,103145.50
2022-11-12T03:42:48.927Z,103164.13
2022-11-12T03:45:19.514Z,103175.53
2022-11-12T03:47:47.821Z,103143.13
2022-11-12T03:50:15.181Z,103149.59
2022-11-12T03:52:47.025Z,103128.72
2022-11-12T03:55:14.719Z,103168.47
2022-11-12T03:57:41.104Z,103144.75
2022-11-12T04:00:09.050Z,103139.75
2022-11-12T04:02:35.402Z,103165.63
2022-11-12T04:05:20.744Z,103107.56
2022-11-12T04:08:16.095Z,103168.00
2022-11-12T04:10:42.512Z,103159.84
2022-11-12T04:13:27.390Z,103157.00
2022-11-12T04:16:20.943Z,103163.91
2022-11-12T04:19:08.310Z,103176.13
2022-11-12T04:21:55.896Z,103160.34
2022-11-12T04:25:08.346Z,103150.63
2022-11-12T04:27:35.157Z,103167.03
2022-11-12T04:30:16.801Z,103175.44
2022-11-12T04:32:56.769Z,103179.59
2022-11-12T04:35:24.731Z,103133.16
2022-11-12T04:37:51.369Z,103181.38
2022-11-12T04:40:37.563Z,103168.97
2022-11-12T04:43:24.248Z,103171.66
2022-11-12T04:45:54.832Z,103174.31
2022-11-12T04:48:22.771Z,103176.41
2022-11-12T04:51:25.511Z,103165.69
2022-11-12T04:53:52.087Z,103142.13
2022-11-12T04:56:18.483Z,103150.34
2022-11-12T04:58:44.862Z,103124.72
2022-11-12T05:01:11.252Z,103153.13
2022-11-12T05:03:37.633Z,103126.88
2022-11-12T05:06:25.357Z,103154.88
2022-11-12T05:08:51.730Z,103122.22
2022-11-12T05:11:18.138Z,103130.69
2022-11-12T05:13:44.493Z,103129.66
2022-11-12T05:16:10.859Z,103089.59
2022-11-12T05:18:37.430Z,103120.31
2022-11-12T05:21:23.924Z,103125.13
2022-11-12T05:23:50.287Z,103112.81
2022-11-12T05:26:16.673Z,103140.63
2022-11-12T05:28:43.062Z,103135.69
2022-11-12T05:31:09.430Z,103145.25
2022-11-12T05:33:35.799Z,103117.53
2022-11-12T05:36:02.159Z,103123.88
2022-11-12T05:38:29.000Z,103120.22
2022-11-12T05:40:55.607Z,103118.47
2022-11-12T05:43:21.961Z,103111.38
2022-11-12T05:45:48.306Z,103085.66
2022-11-12T05:48:14.684Z,103134.44
2022-11-12T05:51:06.307Z,103067.72
2022-11-12T05:53:27.441Z,103070.53
2022-11-12T05:55:53.792Z,103114.50
2022-11-12T05:58:20.210Z,103062.69
2022-11-12T06:00:47.839Z,103136.28
2022-11-12T06:03:14.200Z,103124.19
2022-11-12T06:05:40.560Z,103097.28
2022-11-12T06:08:07.259Z,103104.13
2022-11-12T06:10:33.826Z,103114.78
2022-11-12T06:13:00.369Z,103114.09
2022-11-12T06:15:27.024Z,103077.69
2022-11-12T06:17:54.199Z,103101.22
2022-11-12T06:20:21.767Z,103117.22
2022-11-12T06:22:48.688Z,103081.41
2022-11-12T06:25:15.084Z,103117.97
2022-11-12T06:27:41.473Z,103110.50
2022-11-12T06:30:08.518Z,103090.81
2022-11-12T06:32:34.950Z,103100.88
2022-11-12T06:35:01.379Z,103057.69
2022-11-12T06:37:27.764Z,103073.41
2022-11-12T06:39:54.136Z,103117.16
2022-11-12T06:42:20.515Z,103112.31
2022-11-12T06:44:46.898Z,103146.03
2022-11-12T06:47:13.575Z,103089.53
2022-11-12T06:49:41.463Z,103163.22
2022-11-12T06:52:10.045Z,103095.13
2022-11-12T06:54:40.055Z,103137.19
2022-11-12T06:57:06.523Z,103152.69
2022-11-12T06:59:32.893Z,103137.50
2022-11-12T07:01:59.395Z,103150.00
2022-11-12T07:04:25.912Z,103129.22
2022-11-12T07:06:52.332Z,103149.06
2022-11-12T07:09:18.751Z,103165.81
2022-11-12T07:11:45.123Z,103148.31
2022-11-12T07:14:11.496Z,103149.00
2022-11-12T07:16:37.917Z,103103.97
2022-11-12T07:19:04.292Z,103133.06
2022-11-12T07:21:30.660Z,103144.28
2022-11-12T07:23:57.024Z,103171.84
2022-11-12T07:26:25.572Z,103193.56
2022-11-12T07:28:52.449Z,103121.69
2022-11-12T07:31:20.036Z,103182.63
2022-11-12T07:33:48.781Z,103140.25
2022-11-12T07:36:17.420Z,103204.63
2022-11-12T07:38:44.423Z,103189.31
2022-11-12T07:41:15.430Z,103187.63
2022-11-12T07:43:44.662Z,103139.13
2022-11-12T07:46:15.741Z,103178.13
2022-11-12T07:48:42.748Z,103181.97
2022-11-12T07:51:13.880Z,103200.19
2022-11-12T07:53:41.218Z,103178.28
2022-11-12T07:56:07.854Z,103185.94
2022-11-12T07:58:34.607Z,103187.25
2022-11-12T08:01:11.098Z,103191.19
2022-11-12T08:03:37.610Z,103188.81
2022-11-12T08:06:04.479Z,103207.19
2022-11-12T08:08:30.846Z,103159.16
2022-11-12T08:10:58.373Z,103211.03
2022-11-12T08:13:24.994Z,103143.97
2022-11-12T08:15:52.523Z,103208.78
2022-11-12T08:18:18.987Z,103188.91
2022-11-12T08:20:45.340Z,103180.22
2022-11-12T08:23:11.706Z,103168.16
2022-11-12T08:25:38.071Z,103136.69
2022-11-12T08:28:04.673Z,103205.56
2022-11-12T08:30:31.023Z,103147.97
2022-11-12T08:32:58.886Z,103209.34
2022-11-12T08:35:29.317Z,103204.19
2022-11-12T08:38:10.465Z,103174.25
2022-11-12T08:40:37.179Z,103164.69
2022-11-12T08:43:06.288Z,103208.97
2022-11-12T08:45:34.196Z,103218.09
2022-11-12T08:48:02.460Z,103188.56
2022-11-12T08:50:29.447Z,103218.16
2022-11-12T08:53:00.987Z,103162.53
2022-11-12T08:55:28.172Z,103215.63
2022-11-12T08:57:54.818Z,103177.00
2022-11-12T09:00:21.332Z,103195.09
2022-11-12T09:02:47.696Z,103169.28
2022-11-12T09:05:14.055Z,103175.28
2022-11-12T09:07:49.826Z,103194.75
2022-11-12T09:10:17.195Z,103135.47
2022-11-12T09:12:43.579Z,103185.25
2022-11-12T09:15:36.432Z,103180.91
2022-11-12T09:18:01.767Z,103209.53
2022-11-12T09:20:29.277Z,103192.28
2022-11-12T09:23:05.142Z,103216.75
2022-11-12T09:25:31.536Z,103188.41
2022-11-12T09:28:06.315Z,103174.66
2022-11-12T09:30:32.689Z,103168.25
2022-11-12T09:32:59.104Z,103184.38
2022-11-12T09:35:25.488Z,103165.25
2022-11-12T09:37:51.876Z,103188.94
2022-11-12T09:40:19.189Z,103188.72
2022-11-12T09:42:48.063Z,103186.88
2022-11-12T09:45:22.684Z,103180.66
2022-11-12T09:47:54.241Z,103128.75
2022-11-12T09:51:00.209Z,103197.91
2022-11-12T09:53:41.551Z,103198.84
2022-11-12T09:56:12.839Z,103203.84
2022-11-12T09:58:39.229Z,103166.66
2022-11-12T10:01:22.576Z,103209.44
2022-11-12T10:04:06.334Z,103202.72
2022-11-12T10:06:41.781Z,103182.00
2022-11-12T10:09:16.668Z,103188.38
2022-11-12T10:12:15.877Z,103191.28
2022-11-12T10:15:23.961Z,103204.22
2022-11-12T10:18:01.479Z,103196.81
2022-11-12T10:20:48.804Z,103205.59
2022-11-12T10:23:21.222Z,103198.59
2022-11-12T10:25:49.469Z,103189.31
2022-11-12T10:28:25.568Z,103191.56
2022-11-12T10:30:55.702Z,103190.19
2022-11-12T10:33:22.075Z,103149.75
2022-11-12T10:35:48.714Z,103144.66
2022-11-12T10:38:18.848Z,103130.84
2022-11-12T10:40:45.245Z,103149.31
2022-11-12T10:43:17.585Z,103196.28
2022-11-12T10:45:45.393Z,103154.28
2022-11-12T10:48:28.766Z,103191.41
2022-11-12T10:50:55.609Z,103178.56
2022-11-12T10:53:48.379Z,103185.06
2022-11-12T10:56:29.684Z,103167.28
2022-11-12T10:59:11.252Z,103158.56
2022-11-12T11:01:41.619Z,103120.56
2022-11-12T11:04:28.011Z,103162.66
2022-11-12T11:06:59.100Z,103149.09
2022-11-12T11:09:26.712Z,103153.34
2022-11-12T11:11:54.045Z,103167.94
2022-11-12T11:14:23.482Z,103178.75
2022-11-12T11:16:51.354Z,103161.47
2022-11-12T11:19:17.984Z,103132.19
2022-11-12T11:21:55.034Z,103177.50
2022-11-12T11:24:30.461Z,103170.63
2022-11-12T11:27:34.302Z,103172.59
2022-11-12T11:30:19.698Z,103172.91
2022-11-12T11:33:00.938Z,103164.69
2022-11-12T11:35:31.208Z,103160.44
2022-11-12T11:38:35.745Z,103165.25
2022-11-12T11:41:11.241Z,103167.44
2022-11-12T11:43:48.144Z,103146.50
2022-11-12T11:46:22.032Z,103104.66
2022-11-12T11:48:59.181Z,103152.34
2022-11-12T11:51:37.447Z,103137.09
2022-11-12T11:54:28.559Z,103161.78
2022-11-12T11:56:58.778Z,103153.72
2022-11-12T11:59:39.018Z,103126.28
2022-11-12T12:02:14.368Z,103147.66
2022-11-12T12:04:52.024Z,103139.53
2022-11-12T12:07:24.253Z,103139.91
2022-11-12T12:10:14.215Z,103141.41
2022-11-12T12:13:00.967Z,103127.09
2022-11-12T12:15:45.769Z,103124.63
2022-11-12T12:18:12.031Z,103131.72
2022-11-12T12:21:09.463Z,103127.13
2022-11-12T12:24:03.560Z,103117.97
2022-11-12T12:26:37.724Z,103090.69
2022-11-12T12:29:45.483Z,103062.09
2022-11-12T12:32:24.004Z,103096.59
2022-11-12T12:35:21.636Z,103106.78
2022-11-12T12:38:26.069Z,103101.25
2022-11-12T12:41:01.796Z,103100.75
2022-11-12T12:43:43.518Z,103072.44
2022-11-12T12:46:13.202Z,103089.06
2022-11-12T12:48:43.239Z,103086.88
2022-11-12T12:51:09.712Z,103062.41
2022-11-12T12:53:36.467Z,103070.81
2022-11-12T12:56:29.034Z,103077.66
2022-11-12T12:58:55.456Z,103035.72
2022-11-12T13:01:22.060Z,103070.25
2022-11-12T13:03:54.487Z,103063.25
2022-11-12T13:06:23.924Z,103062.69
2022-11-12T13:09:09.154Z,103067.09
2022-11-12T13:12:00.259Z,103068.59
2022-11-12T13:14:35.483Z,103065.97
2022-11-12T13:17:11.806Z,103064.56
2022-11-12T13:20:08.059Z,103034.81
2022-11-12T13:22:49.981Z,103031.78
2022-11-12T13:25:19.228Z,103055.78
2022-11-12T13:27:45.550Z,103056.22
2022-11-12T13:30:18.015Z,103059.34
2022-11-12T13:32:54.808Z,103058.78
2022-11-12T13:35:34.965Z,103063.34
2022-11-12T13:38:15.650Z,103051.81
2022-11-12T13:40:58.450Z,103018.75
2022-11-12T13:43:31.587Z,103021.53
2022-11-12T13:46:07.102Z,103041.38
2022-11-12T13:48:35.900Z,103009.94
2022-11-12T13:51:04.705Z,103040.50
2022-11-12T13:53:32.242Z,103023.19
2022-11-12T13:55:59.702Z,103002.28
2022-11-12T13:58:32.395Z,103036.44
2022-11-12T14:01:01.021Z,103039.28
2022-11-12T14:03:33.189Z,103036.81
2022-11-12T14:06:06.123Z,103024.16
2022-11-12T14:08:45.893Z,102978.38
2022-11-12T14:11:57.040Z,103021.53
2022-11-12T14:14:39.765Z,102973.84
2022-11-12T14:17:24.938Z,103013.19
2022-11-12T14:20:13.685Z,102993.13
2022-11-12T14:22:42.015Z,102994.16
2022-11-12T14:25:23.856Z,102998.88
2022-11-12T14:27:55.214Z,103000.50
2022-11-12T14:30:21.893Z,102997.16
2022-11-12T14:32:53.882Z,102998.34
2022-11-12T14:35:23.255Z,102992.13
2022-11-12T14:38:05.107Z,102991.78
2022-11-12T14:40:34.136Z,102993.75
2022-11-12T14:43:00.516Z,102993.25
2022-11-12T14:45:31.204Z,102975.78
2022-11-12T14:48:00.877Z,102993.41
2022-11-12T14:50:29.516Z,102997.03
2022-11-12T14:53:05.006Z,102973.44
2022-11-12T14:55:33.826Z,102980.41
2022-11-12T14:58:00.827Z,102980.44
2022-11-12T15:00:30.144Z,102998.03
2022-11-12T15:02:59.870Z,102992.78
2022-11-12T15:05:29.268Z,102963.47
2022-11-12T15:08:05.546Z,102986.97
2022-11-12T15:10:41.941Z,102983.19
2022-11-12T15:13:16.318Z,102976.09
2022-11-12T15:16:22.571Z,102992.00
2022-11-12T15:19:22.028Z,102984.31
2022-11-12T15:22:01.161Z,102981.94
2022-11-12T15:24:32.473Z,102968.91
2022-11-12T15:27:00.854Z,102958.06
2022-11-12T15:29:30.379Z,102987.19
2022-11-12T15:31:59.665Z,102983.19
2022-11-12T15:34:32.152Z,102982.88
2022-11-12T15:37:02.036Z,102983.97
2022-11-12T15:39:29.306Z,102969.78
2022-11-12T15:42:29.170Z,102985.53
2022-11-12T15:45:04.483Z,102982.94
2022-11-12T15:47:31.047Z,102977.25
2022-11-12T15:50:01.341Z,102966.38
2022-11-12T15:52:27.940Z,102962.22
2022-11-12T15:54:54.550Z,102970.31
2022-11-12T15:57:27.122Z,102952.88
2022-11-12T16:00:08.692Z,102950.28
2022-11-12T16:02:35.362Z,102980.84
2022-11-12T16:05:01.892Z,102956.59
2022-11-12T16:07:28.268Z,102937.88
2022-11-12T16:09:54.721Z,102963.63
2022-11-12T16:12:21.134Z,102909.63
2022-11-12T16:14:47.619Z,102947.69
2022-11-12T16:17:15.634Z,102972.56
2022-11-12T16:19:42.184Z,102972.13
2022-11-12T16:22:12.583Z,102976.03
2022-11-12T16:24:42.629Z,102956.13
2022-11-12T16:27:13.943Z,102943.84
2022-11-12T16:29:40.513Z,102951.44
2022-11-12T16:32:07.251Z,102954.88
2022-11-12T16:34:33.614Z,102906.97
2022-11-12T16:37:00.004Z,102923.28
2022-11-12T16:39:26.419Z,102932.25
2022-11-12T16:41:53.573Z,102977.63
2022-11-12T16:44:19.949Z,102959.06
2022-11-12T16:46:46.310Z,102968.41
2022-11-12T16:49:14.077Z,102970.75
2022-11-12T16:51:40.685Z,102957.28
2022-11-12T16:54:07.378Z,102924.88
2022-11-12T16:56:34.422Z,102984.94
2022-11-12T16:59:00.782Z,102973.59
2022-11-12T17:01:31.835Z,102933.06
2022-11-12T17:03:58.735Z,102966.84
2022-11-12T17:06:39.413Z,102983.03
2022-11-12T17:09:07.860Z,102982.91
2022-11-12T17:11:35.071Z,102915.75
2022-11-12T17:14:02.339Z,102952.72
2022-11-12T17:16:29.006Z,102932.25
2022-11-12T17:18:56.803Z,102969.69
2022-11-12T17:21:23.476Z,102991.56
2022-11-12T17:23:50.269Z,102925.53
2022-11-12T17:26:19.407Z,102936.25
2022-11-12T17:28:46.394Z,102931.22
2022-11-12T17:31:21.219Z,102956.50
2022-11-12T17:33:49.783Z,102934.44
2022-11-12T17:36:24.189Z,102903.13
2022-11-12T17:38:54.787Z,102977.75
2022-11-12T17:41:21.172Z,102956.03
2022-11-12T17:43:47.740Z,102959.88
2022-11-12T17:46:14.796Z,102983.00
2022-11-12T17:48:41.337Z,102958.03
2022-11-12T17:51:11.150Z,102892.34
2022-11-12T17:53:38.168Z,102959.19
2022-11-12T17:56:05.589Z,102914.22
2022-11-12T17:58:32.379Z,102963.53
2022-11-12T18:01:08.256Z,102963.94
2022-11-12T18:03:38.752Z,102985.28
2022-11-12T18:06:05.203Z,102911.75
2022-11-12T18:08:31.632Z,102987.91
2022-11-12T18:10:58.021Z,102900.78
2022-11-12T18:13:26.734Z,102949.50
2022-11-12T18:15:53.441Z,102926.78
2022-11-12T18:18:19.842Z,102937.16
2022-11-12T18:20:46.209Z,102979.63
2022-11-12T18:23:12.595Z,102942.34
2022-11-12T18:25:38.984Z,102912.41
2022-11-12T18:28:06.649Z,102953.84
2022-11-12T18:30:34.190Z,102977.88
2022-11-12T18:33:00.761Z,102957.88
2022-11-12T18:35:29.830Z,102949.38
2022-11-12T18:37:56.532Z,102939.34
2022-11-12T18:40:23.739Z,102922.34
2022-11-12T18:42:50.103Z,102916.34
2022-11-12T18:45:16.665Z,102922.31
2022-11-12T18:47:43.039Z,102946.69
2022-11-12T18:50:09.923Z,102975.50
2022-11-12T18:52:36.644Z,102955.59
2022-11-12T18:55:03.883Z,102977.34
2022-11-12T18:57:30.255Z,102896.63
2022-11-12T18:59:56.659Z,102902.75
2022-11-12T19:02:23.038Z,102927.03
2022-11-12T19:04:49.402Z,102959.84
2022-11-12T19:07:15.805Z,102963.91
2022-11-12T19:09:42.180Z,102932.28
2022-11-12T19:12:08.597Z,102880.31
2022-11-12T19:14:34.957Z,102887.16
2022-11-12T19:17:01.316Z,102936.59
2022-11-12T19:19:27.765Z,102896.06
2022-11-12T19:21:54.230Z,102953.59
2022-11-12T19:24:20.648Z,102937.09
2022-11-12T19:26:47.014Z,102950.16
2022-11-12T19:29:13.667Z,102948.00
2022-11-12T19:31:40.807Z,102948.00
2022-11-12T19:34:07.209Z,102942.50
2022-11-12T19:36:33.614Z,102949.03
2022-11-12T19:39:02.363Z,102969.56
2022-11-12T19:41:28.840Z,102962.41
2022-11-12T19:43:55.767Z,102946.44
2022-11-12T19:46:22.147Z,102940.19
2022-11-12T19:48:48.801Z,102955.50
2022-11-12T19:51:15.164Z,102958.47
2022-11-12T19:53:44.537Z,102956.66
2022-11-12T19:56:13.470Z,102905.97
2022-11-12T19:58:40.377Z,102903.88
2022-11-12T20:01:09.037Z,102963.41
2022-11-12T20:03:36.429Z,102927.47
2022-11-12T20:06:07.726Z,102956.09
2022-11-12T20:08:34.451Z,102939.88
2022-11-12T20:11:01.188Z,102904.03
2022-11-12T20:13:28.092Z,102886.19
2022-11-12T20:15:54.652Z,102919.50
2022-11-12T20:18:21.421Z,102925.22
2022-11-12T20:20:50.870Z,102948.72
2022-11-12T20:23:17.362Z,102949.25
2022-11-12T20:25:43.776Z,102919.53
2022-11-12T20:28:10.751Z,102920.06
2022-11-12T20:30:37.664Z,102876.84
2022-11-12T20:33:04.116Z,102902.78
2022-11-12T20:35:30.677Z,102828.97
2022-11-12T20:37:57.061Z,102852.03
2022-11-12T20:40:23.429Z,102853.38
2022-11-12T20:42:51.811Z,102908.06
2022-11-12T20:45:18.176Z,102855.00
2022-11-12T20:47:44.539Z,102875.41
2022-11-12T20:50:10.925Z,102893.72
2022-11-12T20:52:37.314Z,102889.81
2022-11-12T20:55:03.852Z,102882.16
2022-11-12T20:57:30.230Z,102897.28
2022-11-12T20:59:56.590Z,102913.31
2022-11-12T21:02:22.962Z,102895.41
2022-11-12T21:04:49.438Z,102874.03
2022-11-12T21:07:15.880Z,102895.34
2022-11-12T21:09:43.052Z,102906.13
2022-11-12T21:12:09.403Z,102895.59
2022-11-12T21:14:35.776Z,102905.56
2022-11-12T21:17:02.158Z,102849.72
2022-11-12T21:19:28.527Z,102852.13
2022-11-12T21:21:54.894Z,102824.22
2022-11-12T21:24:21.257Z,102912.34
2022-11-12T21:26:50.921Z,102899.03
2022-11-12T21:29:19.088Z,102909.69
2022-11-12T21:31:45.608Z,102899.69
2022-11-12T21:34:11.986Z,102861.75
2022-11-12T21:36:38.449Z,102923.06
2022-11-12T21:39:05.125Z,102839.09
2022-11-12T21:41:32.080Z,102905.09
2022-11-12T21:43:58.859Z,102914.03
2022-11-12T21:46:27.572Z,102894.75
2022-11-12T21:48:55.513Z,102917.25
2022-11-12T21:51:30.792Z,102903.56
2022-11-12T21:53:59.411Z,102885.00
2022-11-12T21:56:26.705Z,102913.41
2022-11-12T21:58:54.274Z,102908.59
2022-11-12T22:01:25.038Z,102913.34
2022-11-12T22:03:53.102Z,102880.41
2022-11-12T22:06:20.590Z,102895.91
2022-11-12T22:08:47.104Z,102885.94
2022-11-12T22:11:15.370Z,102909.94
2022-11-12T22:13:42.507Z,102900.91
2022-11-12T22:16:13.276Z,102893.41
2022-11-12T22:18:39.936Z,102912.13
2022-11-12T22:21:09.505Z,102904.66
2022-11-12T22:23:36.068Z,102863.72
2022-11-12T22:26:07.572Z,102876.81
2022-11-12T22:28:34.401Z,102871.94
2022-11-12T22:31:11.829Z,102909.47
2022-11-12T22:33:38.604Z,102894.25
2022-11-12T22:36:10.293Z,102894.53
2022-11-12T22:38:38.704Z,102891.84
2022-11-12T22:41:07.430Z,102835.84
2022-11-12T22:43:34.122Z,102875.91
2022-11-12T22:46:07.162Z,102882.16
2022-11-12T22:48:34.011Z,102896.56
2022-11-12T22:51:01.542Z,102895.19
2022-11-12T22:53:28.778Z,102872.28
2022-11-12T22:55:55.359Z,102903.91
2022-11-12T22:58:22.131Z,102830.16
2022-11-12T23:00:48.577Z,102845.94
2022-11-12T23:03:14.922Z,102880.97
2022-11-12T23:05:42.443Z,102876.38
2022-11-12T23:08:08.961Z,102877.28
2022-11-12T23:10:35.334Z,102851.09
2022-11-12T23:13:01.688Z,102859.47
2022-11-12T23:15:29.110Z,102865.56
2022-11-12T23:17:55.481Z,102869.59
2022-11-12T23:20:21.868Z,102847.97
2022-11-12T23:22:48.229Z,102870.72
2022-11-12T23:25:14.654Z,102832.00
2022-11-12T23:27:41.416Z,102872.75
2022-11-12T23:30:08.278Z,102846.03
2022-11-12T23:32:34.682Z,102819.63
2022-11-12T23:35:01.064Z,102853.28
2022-11-12T23:37:27.435Z,102848.03
2022-11-12T23:39:53.787Z,102860.47
2022-11-12T23:42:20.160Z,102843.69
2022-11-12T23:44:46.527Z,102837.44
2022-11-12T23:47:12.894Z,102857.47
2022-11-12T23:49:39.307Z,102849.31
2022-11-12T23:52:05.698Z,102858.53
2022-11-12T23:54:32.066Z,102866.75
2022-11-12T23:56:58.498Z,102851.81
2022-11-12T23:59:24.898Z,102823.78
